createdAt,value
2022-11-23T00:04:43.428Z,0
2022-11-23T00:11:06.339Z,0
2022-11-23T00:17:26.459Z,0
2022-11-23T00:23:49.343Z,0
2022-11-23T00:30:09.387Z,0
2022-11-23T00:36:32.400Z,0
2022-11-23T00:42:52.350Z,0
2022-11-23T00:49:15.383Z,0
2022-11-23T00:55:35.384Z,0
2022-11-23T01:01:58.437Z,0
2022-11-23T01:08:18.347Z,0
2022-11-23T01:14:41.427Z,0
2022-11-23T01:21:01.329Z,0
2022-11-23T01:27:24.400Z,0
2022-11-23T01:33:44.352Z,0
2022-11-23T01:40:07.409Z,0
2022-11-23T01:46:27.377Z,0
2022-11-23T01:52:50.420Z,0
2022-11-23T01:59:10.324Z,0
2022-11-23T02:05:33.476Z,0
2022-11-23T02:11:53.362Z,0
2022-11-23T02:18:16.339Z,0
2022-11-23T02:24:36.345Z,0
2022-11-23T02:30:59.375Z,0
2022-11-23T02:37:19.346Z,0
2022-11-23T02:43:42.352Z,0
2022-11-23T02:50:02.381Z,0
2022-11-23T02:56:25.400Z,0
2022-11-23T03:02:45.453Z,0
2022-11-23T03:09:08.377Z,0
2022-11-23T03:15:28.470Z,0
2022-11-23T03:21:51.340Z,0
2022-11-23T03:28:11.395Z,0
2022-11-23T03:34:34.355Z,0
2022-11-23T03:40:54.327Z,0
2022-11-23T03:47:17.455Z,0
2022-11-23T03:53:37.328Z,0
2022-11-23T04:00:00.367Z,0
2022-11-23T04:06:20.360Z,0
2022-11-23T04:12:43.442Z,0
2022-11-23T04:19:03.331Z,0
2022-11-23T04:25:26.502Z,0
2022-11-23T04:48:49.869Z,0
2022-11-23T04:55:09.331Z,0
2022-11-23T05:01:32.526Z,0
2022-11-23T05:07:52.352Z,0
2022-11-23T05:14:15.366Z,0
2022-11-23T05:20:35.370Z,0
2022-11-23T05:26:58.366Z,0
2022-11-23T05:33:18.407Z,0
2022-11-23T05:39:41.327Z,0
2022-11-23T05:46:01.363Z,0
2022-11-23T05:52:24.377Z,0
2022-11-23T05:58:44.329Z,0
2022-11-23T06:05:07.381Z,0
2022-11-23T06:11:27.329Z,0
2022-11-23T06:17:50.370Z,0
2022-11-23T06:24:10.374Z,0
2022-11-23T06:30:33.319Z,0
2022-11-23T06:36:53.368Z,1
2022-11-23T06:43:16.374Z,4
2022-11-23T06:49:36.400Z,10
2022-11-23T06:55:59.346Z,24
2022-11-23T07:02:19.337Z,40
2022-11-23T07:08:42.397Z,60
2022-11-23T07:15:02.384Z,111
2022-11-23T07:21:25.427Z,177
2022-11-23T07:27:45.333Z,270
2022-11-23T07:34:08.381Z,414
2022-11-23T07:40:28.427Z,450
2022-11-23T07:46:51.335Z,508
2022-11-23T07:53:11.335Z,586
2022-11-23T07:59:34.579Z,648
2022-11-23T08:05:54.320Z,486
2022-11-23T08:12:17.439Z,553
2022-11-23T08:18:37.343Z,703
2022-11-23T08:25:00.378Z,841
2022-11-23T08:31:20.395Z,966
2022-11-23T08:37:43.370Z,1108
2022-11-23T08:44:03.416Z,1044
2022-11-23T08:50:26.311Z,985
2022-11-23T08:56:46.376Z,1606
2022-11-23T09:03:09.340Z,1598
2022-11-23T09:09:29.296Z,1128
2022-11-23T09:15:52.416Z,1239
2022-11-23T09:22:12.365Z,1376
2022-11-23T09:28:37.180Z,1485
2022-11-23T09:34:55.358Z,1431
2022-11-23T09:41:18.371Z,2170
2022-11-23T09:47:38.385Z,2936
2022-11-23T09:54:01.422Z,1783
2022-11-23T10:10:08.267Z,1525
2022-11-23T10:16:28.379Z,1611
2022-11-23T10:22:51.349Z,1790
2022-11-23T10:29:11.383Z,1953
2022-11-23T10:35:34.311Z,1965
2022-11-23T10:41:54.375Z,2630
2022-11-23T10:48:17.381Z,4516
2022-11-23T10:54:37.335Z,3556
2022-11-23T11:01:00.439Z,3891
2022-11-23T11:07:20.431Z,4342
2022-11-23T11:13:43.397Z,3719
2022-11-23T11:20:03.338Z,3945
2022-11-23T11:26:26.389Z,5158
2022-11-23T11:32:46.359Z,2189
2022-11-23T11:39:18.163Z,2134
2022-11-23T11:45:29.448Z,2242
2022-11-23T11:51:52.350Z,2134
2022-11-23T11:58:12.401Z,2084
2022-11-23T12:04:35.652Z,1859
2022-11-23T12:10:55.334Z,2310
2022-11-23T12:17:32.294Z,4645
2022-11-23T12:23:38.388Z,2228
2022-11-23T12:30:01.333Z,5439
2022-11-23T12:36:23.528Z,5684
2022-11-23T12:42:44.587Z,4329
2022-11-23T12:49:04.625Z,1737
2022-11-23T12:55:27.336Z,1483
2022-11-23T13:01:48.656Z,1269
2022-11-23T13:08:11.425Z,1650
2022-11-23T13:14:31.724Z,1842
2022-11-23T13:20:54.527Z,1389
2022-11-23T13:27:14.361Z,2401
2022-11-23T13:33:37.684Z,2264
2022-11-23T13:39:57.400Z,1329
2022-11-23T13:46:20.483Z,982
2022-11-23T13:52:40.386Z,1061
2022-11-23T13:59:03.344Z,1003
2022-11-23T14:05:23.323Z,1296
2022-11-23T14:11:46.375Z,1430
2022-11-23T14:18:06.357Z,978
2022-11-23T14:24:29.365Z,772
2022-11-23T14:30:49.329Z,738
2022-11-23T14:37:12.402Z,654
2022-11-23T14:43:32.320Z,585
2022-11-23T14:49:55.337Z,522
2022-11-23T14:56:15.434Z,385
2022-11-23T15:02:38.582Z,240
2022-11-23T15:08:58.433Z,159
2022-11-23T15:15:21.406Z,108
2022-11-23T15:38:44.340Z,21
2022-11-23T15:45:04.338Z,9
2022-11-23T15:51:27.391Z,3
2022-11-23T15:57:47.349Z,1
2022-11-23T16:04:10.357Z,0
2022-11-23T16:10:30.365Z,0
2022-11-23T16:16:53.637Z,0
2022-11-23T16:23:13.373Z,0
2022-11-23T16:29:36.345Z,0
2022-11-23T16:35:56.393Z,0
2022-11-23T16:42:19.425Z,0
2022-11-23T16:48:39.463Z,0
2022-11-23T16:55:02.402Z,0
2022-11-23T17:01:22.562Z,0
2022-11-23T17:07:45.524Z,0
2022-11-23T17:14:05.409Z,0
2022-11-23T17:20:30.823Z,0
2022-11-23T17:26:50.427Z,0
2022-11-23T17:33:13.381Z,0
2022-11-23T17:39:33.494Z,0
2022-11-23T17:45:56.389Z,0
2022-11-23T17:52:16.488Z,0
2022-11-23T17:58:39.389Z,0
2022-11-23T18:04:59.357Z,0
2022-11-23T18:11:22.423Z,0
2022-11-23T18:17:42.352Z,0
2022-11-23T18:24:05.366Z,0
2022-11-23T18:30:25.737Z,0
2022-11-23T18:36:48.370Z,0
2022-11-23T18:43:08.437Z,0
2022-11-23T18:49:31.889Z,0
2022-11-23T18:55:53.940Z,0
2022-11-23T19:02:14.395Z,0
2022-11-23T19:08:34.394Z,0
2022-11-23T19:14:57.407Z,0
2022-11-23T19:21:17.329Z,0
2022-11-23T19:27:40.400Z,0
2022-11-23T19:34:00.392Z,0
2022-11-23T19:40:23.324Z,0
2022-11-23T19:46:43.456Z,0
2022-11-23T19:53:13.733Z,0
2022-11-23T19:59:26.709Z,0
2022-11-23T20:05:49.369Z,0
2022-11-23T20:12:09.441Z,0
2022-11-23T20:18:32.423Z,0
2022-11-23T20:24:52.426Z,0
2022-11-23T20:40:27.251Z,0
2022-11-23T20:47:01.577Z,0
2022-11-23T20:53:10.363Z,0
2022-11-23T20:59:30.498Z,0
2022-11-23T21:05:53.418Z,0
2022-11-23T21:12:13.448Z,0
2022-11-23T21:18:37.145Z,0
2022-11-23T21:24:57.477Z,0
2022-11-23T21:31:20.504Z,0
2022-11-23T21:37:40.361Z,0
2022-11-23T21:44:03.422Z,0
2022-11-23T21:50:23.343Z,0
2022-11-23T21:56:46.452Z,0
2022-11-23T22:03:06.445Z,0
2022-11-23T22:09:29.350Z,0
2022-11-23T22:15:49.477Z,0
2022-11-23T22:22:12.355Z,0
2022-11-23T22:28:32.330Z,0
2022-11-23T22:34:55.403Z,0
2022-11-23T22:41:15.370Z,0
2022-11-23T22:47:38.412Z,0
2022-11-23T22:53:58.385Z,0
2022-11-23T23:00:21.320Z,0
2022-11-23T23:23:18.338Z,0
2022-11-23T23:29:38.367Z,0
2022-11-23T23:36:01.350Z,0
2022-11-23T23:42:21.495Z,0
2022-11-23T23:48:44.331Z,0
2022-11-23T23:55:04.418Z,0
